Airfield :







YOU CAN JOIN US ON...

 
LOGIN :

Register | Disclaimer

   EN    FR    IT 

 









Legend :    VFR   Marginal VFR   IFR   Intensive IFR   Very Intensive IFR
Visi :
Ceiling :
>= 8 km
>= 3000ft
5 to 8 km
1000 to 3000 ft
1500m to 5 km
500 to 1000 ft
800 to 1500m
200 to 500 ft
< 800m
< 200 ft
Symbols :   Thunderstorms  Fog  Heavy snow  Heavy precipitations  Wind > 20 kt






- Airport Elevation : 38 ft
- IATA code : YMH


CYMH - Mary's Harbour

CURRENT METAR :
  • 010558Z AUTO 34003KT 2 1/2SM -RA BR OVC005 00/00 A3020 RMK SLP229

EXPIRED METARs :
  • 010543Z AUTO 33004KT 300V360 2 1/4SM -RA BR OVC005 00/00 A3020 RMK SLP230
  • 010527Z AUTO 35003KT 5SM -RA BR OVC005 00/00 A3021 RMK SLP231
  • 010501Z AUTO 35003KT 8SM -RA OVC007 00/00 A3021 RMK SLP231
  • 010455Z AUTO 34003KT 8SM -RA SCT005 OVC009 00/00 A3020 RMK SLP230
  • 010439Z AUTO 35004KT 5SM -RA -UP BR OVC007 00/00 A3021 RMK SLP231
  • 010414Z AUTO 35004KT 6SM -RA BR OVC007 00/00 A3021 RMK SLP231
  • 010401Z AUTO 35004KT 4SM -RA BR OVC007 00/00 A3021 RMK SLP231
  • 010336Z AUTO 35006KT 3SM -RA BR OVC007 00/00 A3020 RMK SLP229
  • 010318Z AUTO 35004KT 6SM -RA BR OVC007 00/00 A3021 RMK SLP231
  • 010310Z AUTO 36005KT 320V030 5SM -RA BR OVC007 00/00 A3021 RMK SLP232

Expired Forecast.



MET'MAP, your aeronautical weather chart ! - Copyright ORBIFLY December 2007 - Disclaimer

ORBIFLY MET'MAP TEAM :

Programming & Development : Alexandra Zaïnal
Concept & original design : Baudouin d'Aumeries
Assistance for programming : Marc-Olivier Méhu
Technical & hardware support : Manuel Goepfert

Contact : metmap@orbifly.com




SOURCES & CREDITS :

   NOAA